sensor_id;sensor_type;location;lat;lon;timestamp;P1;durP1;ratioP1;P2;durP2;ratioP2
12784;SDS011;6456;42.680;23.260;2024-01-06T00:02:25;35.07;;;21.27;;
12784;SDS011;6456;42.680;23.260;2024-01-06T00:04:54;28.27;;;19.13;;
12784;SDS011;6456;42.680;23.260;2024-01-06T00:07:22;29.43;;;18.60;;
12784;SDS011;6456;42.680;23.260;2024-01-06T00:09:49;31.60;;;18.77;;
12784;SDS011;6456;42.680;23.260;2024-01-06T00:12:16;29.10;;;18.83;;
12784;SDS011;6456;42.680;23.260;2024-01-06T00:14:44;31.33;;;18.73;;
12784;SDS011;6456;42.680;23.260;2024-01-06T00:17:12;26.90;;;17.50;;
12784;SDS011;6456;42.680;23.260;2024-01-06T00:19:40;29.83;;;17.20;;
12784;SDS011;6456;42.680;23.260;2024-01-06T00:22:07;29.13;;;18.57;;
12784;SDS011;6456;42.680;23.260;2024-01-06T00:24:34;31.37;;;20.07;;
12784;SDS011;6456;42.680;23.260;2024-01-06T00:27:02;31.03;;;19.73;;
12784;SDS011;6456;42.680;23.260;2024-01-06T00:29:29;36.93;;;21.30;;
12784;SDS011;6456;42.680;23.260;2024-01-06T00:31:56;36.93;;;22.10;;
12784;SDS011;6456;42.680;23.260;2024-01-06T00:34:25;36.30;;;21.63;;
12784;SDS011;6456;42.680;23.260;2024-01-06T00:36:52;30.33;;;19.93;;
12784;SDS011;6456;42.680;23.260;2024-01-06T00:39:19;33.70;;;20.37;;
12784;SDS011;6456;42.680;23.260;2024-01-06T00:41:47;29.73;;;19.80;;
12784;SDS011;6456;42.680;23.260;2024-01-06T00:44:14;29.97;;;19.83;;
12784;SDS011;6456;42.680;23.260;2024-01-06T00:46:41;28.23;;;20.80;;
12784;SDS011;6456;42.680;23.260;2024-01-06T00:49:08;34.00;;;20.80;;
12784;SDS011;6456;42.680;23.260;2024-01-06T00:51:37;32.77;;;21.23;;
12784;SDS011;6456;42.680;23.260;2024-01-06T00:54:04;32.63;;;20.67;;
12784;SDS011;6456;42.680;23.260;2024-01-06T00:56:32;31.13;;;20.23;;
12784;SDS011;6456;42.680;23.260;2024-01-06T00:58:59;29.23;;;19.43;;
12784;SDS011;6456;42.680;23.260;2024-01-06T01:01:26;29.20;;;19.03;;
12784;SDS011;6456;42.680;23.260;2024-01-06T01:03:53;27.87;;;19.10;;
12784;SDS011;6456;42.680;23.260;2024-01-06T01:06:20;29.43;;;18.03;;
12784;SDS011;6456;42.680;23.260;2024-01-06T01:08:48;33.97;;;19.63;;
12784;SDS011;6456;42.680;23.260;2024-01-06T01:11:16;29.87;;;19.07;;
12784;SDS011;6456;42.680;23.260;2024-01-06T01:13:43;30.47;;;19.10;;
12784;SDS011;6456;42.680;23.260;2024-01-06T01:16:10;31.87;;;19.63;;
12784;SDS011;6456;42.680;23.260;2024-01-06T01:18:37;25.73;;;19.07;;
12784;SDS011;6456;42.680;23.260;2024-01-06T01:21:04;27.50;;;18.77;;
12784;SDS011;6456;42.680;23.260;2024-01-06T01:23:31;28.13;;;19.33;;
12784;SDS011;6456;42.680;23.260;2024-01-06T01:26:00;26.87;;;19.30;;
12784;SDS011;6456;42.680;23.260;2024-01-06T01:28:27;28.67;;;18.83;;
12784;SDS011;6456;42.680;23.260;2024-01-06T01:30:54;30.13;;;18.87;;
12784;SDS011;6456;42.680;23.260;2024-01-06T01:33:20;28.83;;;18.37;;
12784;SDS011;6456;42.680;23.260;2024-01-06T01:35:47;25.27;;;16.17;;
12784;SDS011;6456;42.680;23.260;2024-01-06T01:38:15;27.63;;;15.80;;
12784;SDS011;6456;42.680;23.260;2024-01-06T01:40:42;26.17;;;17.17;;
12784;SDS011;6456;42.680;23.260;2024-01-06T01:43:16;28.10;;;18.33;;
12784;SDS011;6456;42.680;23.260;2024-01-06T01:45:44;26.60;;;18.57;;
12784;SDS011;6456;42.680;23.260;2024-01-06T01:48:15;30.07;;;19.27;;
12784;SDS011;6456;42.680;23.260;2024-01-06T01:50:42;25.83;;;18.00;;
12784;SDS011;6456;42.680;23.260;2024-01-06T01:53:09;29.10;;;19.10;;
12784;SDS011;6456;42.680;23.260;2024-01-06T01:55:37;30.27;;;19.57;;
12784;SDS011;6456;42.680;23.260;2024-01-06T01:58:04;24.93;;;15.70;;
12784;SDS011;6456;42.680;23.260;2024-01-06T02:00:33;25.53;;;16.60;;
12784;SDS011;6456;42.680;23.260;2024-01-06T02:03:00;24.43;;;16.67;;
12784;SDS011;6456;42.680;23.260;2024-01-06T02:05:29;20.10;;;13.23;;
12784;SDS011;6456;42.680;23.260;2024-01-06T02:07:56;22.57;;;14.73;;
12784;SDS011;6456;42.680;23.260;2024-01-06T02:10:24;22.83;;;14.77;;
12784;SDS011;6456;42.680;23.260;2024-01-06T02:12:52;21.83;;;14.93;;
12784;SDS011;6456;42.680;23.260;2024-01-06T02:15:19;21.07;;;14.47;;
12784;SDS011;6456;42.680;23.260;2024-01-06T02:17:48;21.03;;;13.87;;
12784;SDS011;6456;42.680;23.260;2024-01-06T02:20:16;20.07;;;13.30;;
12784;SDS011;6456;42.680;23.260;2024-01-06T02:22:46;21.00;;;12.77;;
12784;SDS011;6456;42.680;23.260;2024-01-06T02:25:14;19.20;;;13.23;;
12784;SDS011;6456;42.680;23.260;2024-01-06T02:27:41;18.30;;;13.50;;
12784;SDS011;6456;42.680;23.260;2024-01-06T02:30:08;21.53;;;13.00;;
12784;SDS011;6456;42.680;23.260;2024-01-06T02:32:36;18.83;;;13.30;;
12784;SDS011;6456;42.680;23.260;2024-01-06T02:35:03;17.90;;;13.07;;
12784;SDS011;6456;42.680;23.260;2024-01-06T02:37:31;20.17;;;12.67;;
12784;SDS011;6456;42.680;23.260;2024-01-06T02:39:59;26.43;;;15.00;;
12784;SDS011;6456;42.680;23.260;2024-01-06T02:42:27;25.97;;;17.27;;
12784;SDS011;6456;42.680;23.260;2024-01-06T02:44:54;17.73;;;12.60;;
12784;SDS011;6456;42.680;23.260;2024-01-06T02:47:21;17.13;;;11.97;;
12784;SDS011;6456;42.680;23.260;2024-01-06T02:49:48;17.77;;;11.90;;
12784;SDS011;6456;42.680;23.260;2024-01-06T02:52:16;18.57;;;12.10;;
12784;SDS011;6456;42.680;23.260;2024-01-06T02:54:43;20.03;;;13.67;;
12784;SDS011;6456;42.680;23.260;2024-01-06T02:57:12;18.80;;;12.67;;
12784;SDS011;6456;42.680;23.260;2024-01-06T02:59:40;19.87;;;12.03;;
12784;SDS011;6456;42.680;23.260;2024-01-06T03:02:09;16.13;;;12.27;;
12784;SDS011;6456;42.680;23.260;2024-01-06T03:04:36;17.03;;;11.80;;
12784;SDS011;6456;42.680;23.260;2024-01-06T03:07:03;15.93;;;11.63;;
12784;SDS011;6456;42.680;23.260;2024-01-06T03:09:30;15.93;;;10.70;;
12784;SDS011;6456;42.680;23.260;2024-01-06T03:11:57;18.40;;;11.17;;
12784;SDS011;6456;42.680;23.260;2024-01-06T03:14:26;16.00;;;11.30;;
12784;SDS011;6456;42.680;23.260;2024-01-06T03:16:53;15.50;;;11.43;;
12784;SDS011;6456;42.680;23.260;2024-01-06T03:19:20;17.50;;;11.83;;
12784;SDS011;6456;42.680;23.260;2024-01-06T03:21:51;19.07;;;11.83;;
12784;SDS011;6456;42.680;23.260;2024-01-06T03:24:18;15.60;;;10.63;;
12784;SDS011;6456;42.680;23.260;2024-01-06T03:26:46;19.47;;;12.23;;
12784;SDS011;6456;42.680;23.260;2024-01-06T03:29:13;19.83;;;11.83;;
12784;SDS011;6456;42.680;23.260;2024-01-06T03:31:45;16.63;;;11.57;;
12784;SDS011;6456;42.680;23.260;2024-01-06T03:34:12;17.40;;;12.20;;
12784;SDS011;6456;42.680;23.260;2024-01-06T03:36:40;22.37;;;13.83;;
12784;SDS011;6456;42.680;23.260;2024-01-06T03:39:08;18.00;;;11.37;;
12784;SDS011;6456;42.680;23.260;2024-01-06T03:41:35;19.77;;;11.57;;
12784;SDS011;6456;42.680;23.260;2024-01-06T03:44:03;25.37;;;14.87;;
12784;SDS011;6456;42.680;23.260;2024-01-06T03:46:30;17.73;;;11.00;;
12784;SDS011;6456;42.680;23.260;2024-01-06T03:48:59;19.73;;;12.00;;
12784;SDS011;6456;42.680;23.260;2024-01-06T03:51:26;16.37;;;10.67;;
12784;SDS011;6456;42.680;23.260;2024-01-06T03:53:54;15.27;;;10.17;;
12784;SDS011;6456;42.680;23.260;2024-01-06T03:56:21;13.80;;;9.97;;
12784;SDS011;6456;42.680;23.260;2024-01-06T03:58:48;16.53;;;10.47;;
12784;SDS011;6456;42.680;23.260;2024-01-06T04:01:15;18.00;;;10.80;;
12784;SDS011;6456;42.680;23.260;2024-01-06T04:03:43;15.87;;;10.33;;
12784;SDS011;6456;42.680;23.260;2024-01-06T04:06:12;16.47;;;11.27;;
12784;SDS011;6456;42.680;23.260;2024-01-06T04:08:39;19.70;;;11.23;;
12784;SDS011;6456;42.680;23.260;2024-01-06T04:11:07;16.80;;;10.87;;
12784;SDS011;6456;42.680;23.260;2024-01-06T04:13:34;20.87;;;11.90;;
12784;SDS011;6456;42.680;23.260;2024-01-06T04:16:02;18.17;;;11.57;;
12784;SDS011;6456;42.680;23.260;2024-01-06T04:18:30;19.53;;;12.27;;
12784;SDS011;6456;42.680;23.260;2024-01-06T04:20:58;16.40;;;10.87;;
12784;SDS011;6456;42.680;23.260;2024-01-06T04:23:26;14.90;;;9.90;;
12784;SDS011;6456;42.680;23.260;2024-01-06T04:25:54;18.13;;;11.20;;
12784;SDS011;6456;42.680;23.260;2024-01-06T04:28:21;19.17;;;11.77;;
12784;SDS011;6456;42.680;23.260;2024-01-06T04:30:48;20.70;;;11.80;;
12784;SDS011;6456;42.680;23.260;2024-01-06T04:33:16;18.07;;;12.70;;
12784;SDS011;6456;42.680;23.260;2024-01-06T04:35:43;18.60;;;12.60;;
12784;SDS011;6456;42.680;23.260;2024-01-06T04:38:10;17.87;;;11.60;;
12784;SDS011;6456;42.680;23.260;2024-01-06T04:40:38;19.20;;;11.47;;
12784;SDS011;6456;42.680;23.260;2024-01-06T04:43:06;22.00;;;13.57;;
12784;SDS011;6456;42.680;23.260;2024-01-06T04:45:34;20.77;;;12.73;;
12784;SDS011;6456;42.680;23.260;2024-01-06T04:48:02;24.30;;;14.47;;
12784;SDS011;6456;42.680;23.260;2024-01-06T04:50:33;21.43;;;12.83;;
12784;SDS011;6456;42.680;23.260;2024-01-06T04:53:00;19.57;;;11.80;;
12784;SDS011;6456;42.680;23.260;2024-01-06T04:55:28;19.80;;;13.37;;
12784;SDS011;6456;42.680;23.260;2024-01-06T04:57:57;18.43;;;12.90;;
12784;SDS011;6456;42.680;23.260;2024-01-06T05:00:24;18.73;;;13.00;;
12784;SDS011;6456;42.680;23.260;2024-01-06T05:02:52;20.80;;;13.03;;
12784;SDS011;6456;42.680;23.260;2024-01-06T05:05:19;21.13;;;13.63;;
12784;SDS011;6456;42.680;23.260;2024-01-06T05:07:46;20.83;;;13.07;;
12784;SDS011;6456;42.680;23.260;2024-01-06T05:10:14;20.17;;;13.10;;
12784;SDS011;6456;42.680;23.260;2024-01-06T05:12:41;22.60;;;14.00;;
12784;SDS011;6456;42.680;23.260;2024-01-06T05:15:11;21.07;;;13.67;;
12784;SDS011;6456;42.680;23.260;2024-01-06T05:17:39;19.40;;;12.87;;
12784;SDS011;6456;42.680;23.260;2024-01-06T05:20:07;21.37;;;13.33;;
12784;SDS011;6456;42.680;23.260;2024-01-06T05:22:34;18.57;;;11.43;;
12784;SDS011;6456;42.680;23.260;2024-01-06T05:25:02;17.83;;;12.73;;
12784;SDS011;6456;42.680;23.260;2024-01-06T05:27:30;18.70;;;12.37;;
12784;SDS011;6456;42.680;23.260;2024-01-06T05:29:57;19.07;;;12.83;;
12784;SDS011;6456;42.680;23.260;2024-01-06T05:32:25;19.47;;;12.13;;
12784;SDS011;6456;42.680;23.260;2024-01-06T05:34:53;18.93;;;11.60;;
12784;SDS011;6456;42.680;23.260;2024-01-06T05:37:20;22.40;;;13.40;;
12784;SDS011;6456;42.680;23.260;2024-01-06T05:39:48;17.93;;;11.80;;
12784;SDS011;6456;42.680;23.260;2024-01-06T05:42:15;19.27;;;12.20;;
12784;SDS011;6456;42.680;23.260;2024-01-06T05:44:42;16.17;;;11.70;;
12784;SDS011;6456;42.680;23.260;2024-01-06T05:47:12;17.93;;;11.97;;
12784;SDS011;6456;42.680;23.260;2024-01-06T05:49:43;17.20;;;11.13;;
12784;SDS011;6456;42.680;23.260;2024-01-06T05:52:10;18.13;;;11.67;;
12784;SDS011;6456;42.680;23.260;2024-01-06T05:54:39;17.03;;;11.63;;
12784;SDS011;6456;42.680;23.260;2024-01-06T05:57:07;16.97;;;11.43;;
12784;SDS011;6456;42.680;23.260;2024-01-06T05:59:35;22.57;;;12.37;;
12784;SDS011;6456;42.680;23.260;2024-01-06T06:02:03;17.17;;;11.50;;
12784;SDS011;6456;42.680;23.260;2024-01-06T06:04:30;14.93;;;11.37;;
12784;SDS011;6456;42.680;23.260;2024-01-06T06:06:59;16.97;;;11.27;;
12784;SDS011;6456;42.680;23.260;2024-01-06T06:09:27;20.47;;;12.13;;
12784;SDS011;6456;42.680;23.260;2024-01-06T06:11:54;17.17;;;11.43;;
12784;SDS011;6456;42.680;23.260;2024-01-06T06:14:21;17.47;;;11.37;;
12784;SDS011;6456;42.680;23.260;2024-01-06T06:16:49;14.87;;;11.23;;
12784;SDS011;6456;42.680;23.260;2024-01-06T06:19:16;19.50;;;13.37;;
12784;SDS011;6456;42.680;23.260;2024-01-06T06:21:43;16.83;;;11.20;;
12784;SDS011;6456;42.680;23.260;2024-01-06T06:24:12;18.70;;;12.17;;
12784;SDS011;6456;42.680;23.260;2024-01-06T06:26:39;21.10;;;13.23;;
12784;SDS011;6456;42.680;23.260;2024-01-06T06:29:06;17.57;;;12.20;;
12784;SDS011;6456;42.680;23.260;2024-01-06T06:31:33;17.80;;;12.43;;
12784;SDS011;6456;42.680;23.260;2024-01-06T06:34:00;19.57;;;11.53;;
12784;SDS011;6456;42.680;23.260;2024-01-06T06:36:27;16.97;;;10.80;;
12784;SDS011;6456;42.680;23.260;2024-01-06T06:38:54;15.80;;;9.93;;
12784;SDS011;6456;42.680;23.260;2024-01-06T06:41:24;20.90;;;10.87;;
12784;SDS011;6456;42.680;23.260;2024-01-06T06:43:51;18.83;;;11.27;;
12784;SDS011;6456;42.680;23.260;2024-01-06T06:46:18;15.90;;;10.87;;
12784;SDS011;6456;42.680;23.260;2024-01-06T06:48:45;14.40;;;10.23;;
12784;SDS011;6456;42.680;23.260;2024-01-06T06:51:12;15.20;;;10.47;;
12784;SDS011;6456;42.680;23.260;2024-01-06T06:53:40;17.60;;;11.60;;
12784;SDS011;6456;42.680;23.260;2024-01-06T06:56:07;16.63;;;10.47;;
12784;SDS011;6456;42.680;23.260;2024-01-06T06:58:35;23.27;;;14.90;;
12784;SDS011;6456;42.680;23.260;2024-01-06T07:01:02;20.00;;;15.23;;
12784;SDS011;6456;42.680;23.260;2024-01-06T07:03:30;21.97;;;15.00;;
12784;SDS011;6456;42.680;23.260;2024-01-06T07:05:57;24.07;;;16.47;;
12784;SDS011;6456;42.680;23.260;2024-01-06T07:08:24;21.90;;;15.03;;
12784;SDS011;6456;42.680;23.260;2024-01-06T07:10:51;19.93;;;14.67;;
12784;SDS011;6456;42.680;23.260;2024-01-06T07:13:18;21.97;;;15.87;;
12784;SDS011;6456;42.680;23.260;2024-01-06T07:15:47;22.53;;;16.80;;
12784;SDS011;6456;42.680;23.260;2024-01-06T07:18:14;25.40;;;17.03;;
12784;SDS011;6456;42.680;23.260;2024-01-06T07:20:41;22.00;;;16.43;;
12784;SDS011;6456;42.680;23.260;2024-01-06T07:23:09;23.33;;;16.57;;
12784;SDS011;6456;42.680;23.260;2024-01-06T07:25:36;22.00;;;16.30;;
12784;SDS011;6456;42.680;23.260;2024-01-06T07:28:04;22.50;;;15.70;;
12784;SDS011;6456;42.680;23.260;2024-01-06T07:30:30;24.57;;;16.13;;
12784;SDS011;6456;42.680;23.260;2024-01-06T07:32:59;23.20;;;15.67;;
12784;SDS011;6456;42.680;23.260;2024-01-06T07:35:27;21.70;;;15.43;;
12784;SDS011;6456;42.680;23.260;2024-01-06T07:37:54;23.23;;;16.80;;
12784;SDS011;6456;42.680;23.260;2024-01-06T07:40:21;20.77;;;16.00;;
12784;SDS011;6456;42.680;23.260;2024-01-06T07:42:50;20.83;;;15.03;;
12784;SDS011;6456;42.680;23.260;2024-01-06T07:45:17;23.07;;;15.47;;
12784;SDS011;6456;42.680;23.260;2024-01-06T07:47:44;21.30;;;16.07;;
12784;SDS011;6456;42.680;23.260;2024-01-06T07:50:13;23.87;;;16.37;;
12784;SDS011;6456;42.680;23.260;2024-01-06T07:52:40;23.90;;;15.83;;
12784;SDS011;6456;42.680;23.260;2024-01-06T07:55:07;22.50;;;16.13;;
12784;SDS011;6456;42.680;23.260;2024-01-06T07:57:34;27.77;;;15.80;;
12784;SDS011;6456;42.680;23.260;2024-01-06T08:00:01;27.10;;;18.77;;
12784;SDS011;6456;42.680;23.260;2024-01-06T08:02:29;31.27;;;19.03;;
12784;SDS011;6456;42.680;23.260;2024-01-06T08:04:56;21.73;;;16.00;;
12784;SDS011;6456;42.680;23.260;2024-01-06T08:07:24;21.13;;;14.90;;
12784;SDS011;6456;42.680;23.260;2024-01-06T08:09:51;24.10;;;16.30;;
12784;SDS011;6456;42.680;23.260;2024-01-06T08:12:18;22.30;;;16.40;;
12784;SDS011;6456;42.680;23.260;2024-01-06T08:14:45;21.03;;;15.50;;
12784;SDS011;6456;42.680;23.260;2024-01-06T08:17:12;20.87;;;14.53;;
12784;SDS011;6456;42.680;23.260;2024-01-06T08:19:40;24.97;;;15.30;;
12784;SDS011;6456;42.680;23.260;2024-01-06T08:22:08;20.27;;;13.80;;
12784;SDS011;6456;42.680;23.260;2024-01-06T08:24:36;17.53;;;13.30;;
12784;SDS011;6456;42.680;23.260;2024-01-06T08:27:03;21.70;;;14.00;;
12784;SDS011;6456;42.680;23.260;2024-01-06T08:29:31;19.27;;;13.43;;
12784;SDS011;6456;42.680;23.260;2024-01-06T08:31:58;19.10;;;13.67;;
12784;SDS011;6456;42.680;23.260;2024-01-06T08:34:25;20.50;;;14.17;;
12784;SDS011;6456;42.680;23.260;2024-01-06T08:36:52;21.90;;;14.93;;
12784;SDS011;6456;42.680;23.260;2024-01-06T08:39:19;19.57;;;14.07;;
12784;SDS011;6456;42.680;23.260;2024-01-06T08:41:48;26.87;;;19.03;;
12784;SDS011;6456;42.680;23.260;2024-01-06T08:44:16;28.27;;;21.73;;
12784;SDS011;6456;42.680;23.260;2024-01-06T08:46:42;30.23;;;20.33;;
12784;SDS011;6456;42.680;23.260;2024-01-06T08:49:09;33.93;;;23.17;;
12784;SDS011;6456;42.680;23.260;2024-01-06T08:51:36;35.23;;;22.27;;
12784;SDS011;6456;42.680;23.260;2024-01-06T08:54:03;27.60;;;20.03;;
12784;SDS011;6456;42.680;23.260;2024-01-06T08:56:31;30.70;;;21.13;;
12784;SDS011;6456;42.680;23.260;2024-01-06T08:59:01;30.00;;;20.63;;
12784;SDS011;6456;42.680;23.260;2024-01-06T09:01:28;32.80;;;19.27;;
12784;SDS011;6456;42.680;23.260;2024-01-06T09:03:56;23.93;;;17.80;;
12784;SDS011;6456;42.680;23.260;2024-01-06T09:06:23;26.87;;;18.20;;
12784;SDS011;6456;42.680;23.260;2024-01-06T09:08:51;34.03;;;23.43;;
12784;SDS011;6456;42.680;23.260;2024-01-06T09:11:18;38.40;;;25.40;;
12784;SDS011;6456;42.680;23.260;2024-01-06T09:13:45;42.63;;;22.73;;
12784;SDS011;6456;42.680;23.260;2024-01-06T09:16:13;26.20;;;16.83;;
12784;SDS011;6456;42.680;23.260;2024-01-06T09:18:40;27.90;;;17.50;;
12784;SDS011;6456;42.680;23.260;2024-01-06T09:21:07;29.67;;;19.57;;
12784;SDS011;6456;42.680;23.260;2024-01-06T09:23:34;38.57;;;22.03;;
12784;SDS011;6456;42.680;23.260;2024-01-06T09:28:37;38.83;;;23.73;;
12784;SDS011;6456;42.680;23.260;2024-01-06T09:31:04;35.60;;;22.60;;
12784;SDS011;6456;42.680;23.260;2024-01-06T09:33:33;37.90;;;23.83;;
12784;SDS011;6456;42.680;23.260;2024-01-06T09:36:00;34.40;;;23.70;;
12784;SDS011;6456;42.680;23.260;2024-01-06T09:38:27;33.27;;;22.67;;
12784;SDS011;6456;42.680;23.260;2024-01-06T09:40:54;35.83;;;22.97;;
12784;SDS011;6456;42.680;23.260;2024-01-06T09:43:22;48.07;;;26.83;;
12784;SDS011;6456;42.680;23.260;2024-01-06T09:45:51;46.60;;;32.93;;
12784;SDS011;6456;42.680;23.260;2024-01-06T09:48:26;38.60;;;29.77;;
12784;SDS011;6456;42.680;23.260;2024-01-06T09:50:58;45.20;;;30.50;;
12784;SDS011;6456;42.680;23.260;2024-01-06T09:53:28;46.50;;;29.60;;
12784;SDS011;6456;42.680;23.260;2024-01-06T09:56:01;38.93;;;27.80;;
12784;SDS011;6456;42.680;23.260;2024-01-06T09:58:29;42.60;;;27.57;;
12784;SDS011;6456;42.680;23.260;2024-01-06T10:01:00;38.63;;;27.30;;
12784;SDS011;6456;42.680;23.260;2024-01-06T10:03:31;47.97;;;27.47;;
12784;SDS011;6456;42.680;23.260;2024-01-06T10:06:01;39.67;;;27.60;;
12784;SDS011;6456;42.680;23.260;2024-01-06T10:08:29;42.30;;;27.43;;
12784;SDS011;6456;42.680;23.260;2024-01-06T10:10:57;37.40;;;24.27;;
12784;SDS011;6456;42.680;23.260;2024-01-06T10:13:24;32.87;;;21.80;;
12784;SDS011;6456;42.680;23.260;2024-01-06T10:15:53;29.57;;;19.90;;
12784;SDS011;6456;42.680;23.260;2024-01-06T10:18:20;27.07;;;19.53;;
12784;SDS011;6456;42.680;23.260;2024-01-06T10:20:47;30.23;;;21.33;;
12784;SDS011;6456;42.680;23.260;2024-01-06T10:23:16;33.33;;;22.83;;
12784;SDS011;6456;42.680;23.260;2024-01-06T10:25:42;28.33;;;21.63;;
12784;SDS011;6456;42.680;23.260;2024-01-06T10:28:11;35.23;;;21.80;;
12784;SDS011;6456;42.680;23.260;2024-01-06T10:30:39;32.13;;;22.77;;
12784;SDS011;6456;42.680;23.260;2024-01-06T10:33:08;36.60;;;22.27;;
12784;SDS011;6456;42.680;23.260;2024-01-06T10:35:36;39.37;;;21.97;;
12784;SDS011;6456;42.680;23.260;2024-01-06T10:38:03;29.67;;;21.70;;
12784;SDS011;6456;42.680;23.260;2024-01-06T10:40:32;34.67;;;21.40;;
12784;SDS011;6456;42.680;23.260;2024-01-06T10:42:59;33.83;;;22.37;;
12784;SDS011;6456;42.680;23.260;2024-01-06T10:45:28;30.50;;;21.00;;
12784;SDS011;6456;42.680;23.260;2024-01-06T10:47:55;34.60;;;20.20;;
12784;SDS011;6456;42.680;23.260;2024-01-06T10:50:24;26.60;;;20.30;;
12784;SDS011;6456;42.680;23.260;2024-01-06T10:52:53;26.27;;;18.23;;
12784;SDS011;6456;42.680;23.260;2024-01-06T10:55:22;30.07;;;17.87;;
12784;SDS011;6456;42.680;23.260;2024-01-06T10:57:52;32.33;;;21.73;;
12784;SDS011;6456;42.680;23.260;2024-01-06T11:00:20;26.27;;;19.63;;
12784;SDS011;6456;42.680;23.260;2024-01-06T11:02:47;30.07;;;19.23;;
12784;SDS011;6456;42.680;23.260;2024-01-06T11:05:17;25.37;;;16.50;;
12784;SDS011;6456;42.680;23.260;2024-01-06T11:07:46;25.67;;;16.07;;
12784;SDS011;6456;42.680;23.260;2024-01-06T11:10:17;24.30;;;15.73;;
12784;SDS011;6456;42.680;23.260;2024-01-06T11:12:45;25.67;;;16.30;;
12784;SDS011;6456;42.680;23.260;2024-01-06T11:15:46;26.10;;;16.17;;
12784;SDS011;6456;42.680;23.260;2024-01-06T11:21:15;23.40;;;15.47;;
12784;SDS011;6456;42.680;23.260;2024-01-06T11:23:44;23.33;;;15.83;;
12784;SDS011;6456;42.680;23.260;2024-01-06T11:26:11;19.80;;;14.67;;
12784;SDS011;6456;42.680;23.260;2024-01-06T11:28:44;25.10;;;14.67;;
12784;SDS011;6456;42.680;23.260;2024-01-06T11:31:13;25.37;;;14.50;;
12784;SDS011;6456;42.680;23.260;2024-01-06T11:33:41;18.87;;;12.67;;
12784;SDS011;6456;42.680;23.260;2024-01-06T11:36:08;18.80;;;12.90;;
12784;SDS011;6456;42.680;23.260;2024-01-06T11:38:37;18.37;;;12.03;;
12784;SDS011;6456;42.680;23.260;2024-01-06T11:41:06;19.77;;;12.37;;
12784;SDS011;6456;42.680;23.260;2024-01-06T11:43:35;19.07;;;11.23;;
12784;SDS011;6456;42.680;23.260;2024-01-06T11:46:05;14.13;;;10.50;;
12784;SDS011;6456;42.680;23.260;2024-01-06T11:48:35;15.27;;;11.17;;
12784;SDS011;6456;42.680;23.260;2024-01-06T11:51:04;14.50;;;11.10;;
12784;SDS011;6456;42.680;23.260;2024-01-06T11:53:31;19.47;;;11.00;;
12784;SDS011;6456;42.680;23.260;2024-01-06T11:55:59;15.03;;;10.00;;
12784;SDS011;6456;42.680;23.260;2024-01-06T11:58:27;15.47;;;11.03;;
12784;SDS011;6456;42.680;23.260;2024-01-06T12:00:55;13.60;;;10.50;;
12784;SDS011;6456;42.680;23.260;2024-01-06T12:03:22;13.33;;;9.53;;
12784;SDS011;6456;42.680;23.260;2024-01-06T12:06:00;13.63;;;8.10;;
12784;SDS011;6456;42.680;23.260;2024-01-06T12:08:28;12.57;;;8.87;;
12784;SDS011;6456;42.680;23.260;2024-01-06T12:11:01;12.00;;;8.73;;
12784;SDS011;6456;42.680;23.260;2024-01-06T12:13:29;14.00;;;9.13;;
12784;SDS011;6456;42.680;23.260;2024-01-06T12:15:56;18.70;;;8.70;;
12784;SDS011;6456;42.680;23.260;2024-01-06T12:18:23;11.60;;;9.23;;
12784;SDS011;6456;42.680;23.260;2024-01-06T12:20:52;13.90;;;9.73;;
12784;SDS011;6456;42.680;23.260;2024-01-06T12:23:27;12.27;;;8.30;;
12784;SDS011;6456;42.680;23.260;2024-01-06T12:25:54;12.13;;;8.43;;
12784;SDS011;6456;42.680;23.260;2024-01-06T12:28:22;13.83;;;8.17;;
12784;SDS011;6456;42.680;23.260;2024-01-06T12:30:49;18.93;;;8.87;;
12784;SDS011;6456;42.680;23.260;2024-01-06T12:33:19;15.37;;;8.57;;
12784;SDS011;6456;42.680;23.260;2024-01-06T12:35:47;12.23;;;7.80;;
12784;SDS011;6456;42.680;23.260;2024-01-06T12:38:14;14.07;;;8.27;;
12784;SDS011;6456;42.680;23.260;2024-01-06T12:40:43;19.57;;;11.37;;
12784;SDS011;6456;42.680;23.260;2024-01-06T12:43:13;22.97;;;11.13;;
12784;SDS011;6456;42.680;23.260;2024-01-06T12:45:40;13.50;;;9.27;;
12784;SDS011;6456;42.680;23.260;2024-01-06T12:48:07;12.80;;;7.07;;
12784;SDS011;6456;42.680;23.260;2024-01-06T12:50:34;9.30;;;6.73;;
12784;SDS011;6456;42.680;23.260;2024-01-06T12:53:01;10.93;;;6.70;;
12784;SDS011;6456;42.680;23.260;2024-01-06T12:55:28;11.23;;;6.60;;
12784;SDS011;6456;42.680;23.260;2024-01-06T12:57:56;11.00;;;7.03;;
12784;SDS011;6456;42.680;23.260;2024-01-06T13:00:26;8.13;;;6.60;;
12784;SDS011;6456;42.680;23.260;2024-01-06T13:02:53;11.40;;;7.07;;
12784;SDS011;6456;42.680;23.260;2024-01-06T13:05:20;12.07;;;7.93;;
12784;SDS011;6456;42.680;23.260;2024-01-06T13:07:47;10.47;;;8.10;;
12784;SDS011;6456;42.680;23.260;2024-01-06T13:10:15;9.73;;;7.23;;
12784;SDS011;6456;42.680;23.260;2024-01-06T13:12:42;13.97;;;8.07;;
12784;SDS011;6456;42.680;23.260;2024-01-06T13:15:10;10.43;;;7.20;;
12784;SDS011;6456;42.680;23.260;2024-01-06T13:17:37;11.10;;;6.93;;
12784;SDS011;6456;42.680;23.260;2024-01-06T13:20:05;9.97;;;7.10;;
12784;SDS011;6456;42.680;23.260;2024-01-06T13:22:33;12.37;;;6.47;;
12784;SDS011;6456;42.680;23.260;2024-01-06T13:25:00;8.87;;;6.80;;
12784;SDS011;6456;42.680;23.260;2024-01-06T13:27:27;9.57;;;6.50;;
12784;SDS011;6456;42.680;23.260;2024-01-06T13:29:54;10.30;;;6.20;;
12784;SDS011;6456;42.680;23.260;2024-01-06T13:32:23;11.47;;;6.30;;
12784;SDS011;6456;42.680;23.260;2024-01-06T13:34:52;10.60;;;6.60;;
12784;SDS011;6456;42.680;23.260;2024-01-06T13:37:23;8.03;;;6.10;;
12784;SDS011;6456;42.680;23.260;2024-01-06T13:39:50;9.43;;;6.00;;
12784;SDS011;6456;42.680;23.260;2024-01-06T13:42:18;9.00;;;5.80;;
12784;SDS011;6456;42.680;23.260;2024-01-06T13:44:46;7.97;;;5.33;;
12784;SDS011;6456;42.680;23.260;2024-01-06T13:47:15;7.20;;;5.33;;
12784;SDS011;6456;42.680;23.260;2024-01-06T13:49:44;6.10;;;5.40;;
12784;SDS011;6456;42.680;23.260;2024-01-06T13:52:11;11.77;;;5.20;;
12784;SDS011;6456;42.680;23.260;2024-01-06T13:54:39;8.57;;;5.67;;
12784;SDS011;6456;42.680;23.260;2024-01-06T13:57:06;5.93;;;4.70;;
12784;SDS011;6456;42.680;23.260;2024-01-06T13:59:33;12.47;;;4.93;;
12784;SDS011;6456;42.680;23.260;2024-01-06T14:02:03;7.07;;;4.50;;
12784;SDS011;6456;42.680;23.260;2024-01-06T14:04:32;7.13;;;5.10;;
12784;SDS011;6456;42.680;23.260;2024-01-06T14:07:01;9.37;;;6.43;;
12784;SDS011;6456;42.680;23.260;2024-01-06T14:09:28;8.90;;;5.20;;
12784;SDS011;6456;42.680;23.260;2024-01-06T14:11:55;6.33;;;5.33;;
12784;SDS011;6456;42.680;23.260;2024-01-06T14:14:22;13.53;;;7.03;;
12784;SDS011;6456;42.680;23.260;2024-01-06T14:16:49;13.43;;;8.37;;
12784;SDS011;6456;42.680;23.260;2024-01-06T14:19:17;10.37;;;6.87;;
12784;SDS011;6456;42.680;23.260;2024-01-06T14:21:43;10.70;;;6.73;;
12784;SDS011;6456;42.680;23.260;2024-01-06T14:24:12;9.27;;;6.80;;
12784;SDS011;6456;42.680;23.260;2024-01-06T14:26:39;10.33;;;7.07;;
12784;SDS011;6456;42.680;23.260;2024-01-06T14:29:07;10.63;;;5.93;;
12784;SDS011;6456;42.680;23.260;2024-01-06T14:31:34;10.03;;;6.10;;
12784;SDS011;6456;42.680;23.260;2024-01-06T14:34:01;8.13;;;5.57;;